Time;durP1;ratioP1;P1;durP2;ratioP2;P2;SDS_P1;SDS_P2;PMS_P1;PMS_P2;Temp;Humidity;BMP_temperature;BMP_pressure;BME280_temperature;BME280_humidity;BME280_pressure;Samples;Min_cycle;Max_cycle;Signal;HPM_P1;HPM_P2
2023/06/30 00:01:39;;;;;;;6.38;1.50;;;15.30;99.90;;;;;;5016136;28;20104;-57
2023/06/30 00:04:06;;;;;;;3.50;1.67;;;15.20;99.90;;;;;;5021888;28;20029;-57
2023/06/30 00:06:32;;;;;;;11.00;1.98;;;15.20;99.90;;;;;;5035334;28;20034;-57
2023/06/30 00:08:58;;;;;;;4.85;1.38;;;15.20;99.90;;;;;;5026614;28;20101;-57
2023/06/30 00:11:24;;;;;;;7.78;1.65;;;15.20;99.90;;;;;;5015328;28;20078;-57
2023/06/30 00:13:55;;;;;;;1.45;1.00;;;15.10;99.90;;;;;;5014257;28;20102;-56
2023/06/30 00:16:21;;;;;;;4.82;1.45;;;15.10;99.90;;;;;;5014992;28;20022;-56
2023/06/30 00:18:46;;;;;;;1.67;1.02;;;15.20;99.90;;;;;;5014797;28;20046;-57
2023/06/30 00:21:12;;;;;;;1.83;0.93;;;15.20;99.90;;;;;;5013421;28;20396;-61
2023/06/30 00:23:39;;;;;;;4.75;1.15;;;15.20;99.90;;;;;;5014886;28;20061;-57
2023/06/30 00:26:05;;;;;;;4.57;2.03;;;15.30;99.90;;;;;;5014224;28;20030;-56
2023/06/30 00:28:30;;;;;;;2.95;1.20;;;15.30;99.90;;;;;;5015109;28;20014;-57
2023/06/30 00:30:56;;;;;;;8.32;1.10;;;15.20;99.90;;;;;;5014635;28;20028;-57
2023/06/30 00:33:21;;;;;;;4.85;1.20;;;15.20;99.90;;;;;;5014544;28;20057;-56
2023/06/30 00:35:47;;;;;;;6.10;1.42;;;15.20;99.90;;;;;;5013182;28;20057;-56
2023/06/30 00:38:13;;;;;;;2.67;0.90;;;15.10;99.90;;;;;;5014767;28;20430;-56
2023/06/30 00:40:38;;;;;;;2.17;1.00;;;15.10;99.90;;;;;;5013663;28;20037;-59
2023/06/30 00:43:04;;;;;;;2.60;0.93;;;15.10;99.90;;;;;;5024187;28;20026;-56
2023/06/30 00:45:30;;;;;;;5.35;1.00;;;15.10;99.90;;;;;;5014201;28;20037;-56
2023/06/30 00:47:55;;;;;;;2.85;1.10;;;15.00;99.90;;;;;;5014196;28;20026;-58
2023/06/30 00:50:21;;;;;;;2.58;1.15;;;15.00;99.90;;;;;;5013808;28;20048;-56
2023/06/30 00:52:50;;;;;;;2.60;0.80;;;15.00;99.90;;;;;;5012966;28;20041;-56
2023/06/30 00:55:17;;;;;;;2.92;0.90;;;15.00;99.90;;;;;;5013176;28;20026;-57
2023/06/30 00:57:43;;;;;;;2.75;1.00;;;15.00;99.90;;;;;;5010828;28;20029;-58
2023/06/30 01:00:10;;;;;;;5.55;1.27;;;14.90;99.90;;;;;;5010238;28;20502;-57
2023/06/30 01:02:49;;;;;;;3.42;0.98;;;14.90;99.90;;;;;;5012374;28;20061;-57
2023/06/30 01:05:27;;;;;;;6.00;1.30;;;14.90;99.90;;;;;;5011687;28;20038;-56
2023/06/30 01:08:15;;;;;;;3.90;1.33;;;14.80;99.90;;;;;;4994597;28;20026;-57
2023/06/30 01:10:44;;;;;;;3.85;1.13;;;14.80;99.90;;;;;;5004643;28;20029;-56
2023/06/30 01:13:11;;;;;;;3.28;1.10;;;14.80;99.90;;;;;;5027553;28;20072;-57
2023/06/30 01:15:38;;;;;;;3.22;1.02;;;14.80;99.90;;;;;;5014037;28;20084;-57
2023/06/30 01:18:04;;;;;;;3.13;1.17;;;14.70;99.90;;;;;;5013825;28;20038;-56
2023/06/30 01:20:35;;;;;;;6.97;1.20;;;14.70;99.90;;;;;;5014042;28;20018;-60
2023/06/30 01:23:13;;;;;;;1.27;0.90;;;14.70;99.90;;;;;;5013172;28;20482;-57
2023/06/30 01:25:40;;;;;;;4.05;1.15;;;14.70;99.90;;;;;;5013094;28;20033;-56
2023/06/30 01:28:07;;;;;;;5.65;1.95;;;14.70;99.90;;;;;;5013732;28;20022;-57
2023/06/30 01:30:33;;;;;;;4.38;0.98;;;14.70;99.90;;;;;;5013708;28;20030;-60
2023/06/30 01:32:59;;;;;;;3.47;1.35;;;14.70;99.90;;;;;;5012993;28;20021;-57
2023/06/30 01:35:26;;;;;;;5.13;1.30;;;14.70;99.90;;;;;;5013712;28;20030;-57
2023/06/30 01:37:53;;;;;;;4.45;0.90;;;14.70;99.90;;;;;;5013541;28;20033;-57
2023/06/30 01:40:20;;;;;;;2.50;1.05;;;14.70;99.90;;;;;;5013853;28;20485;-57
2023/06/30 01:42:47;;;;;;;7.50;1.38;;;14.60;99.90;;;;;;5012887;28;20030;-58
2023/06/30 01:45:16;;;;;;;1.85;1.17;;;14.60;99.90;;;;;;5012194;28;20070;-57
2023/06/30 01:47:43;;;;;;;2.10;1.20;;;14.60;99.90;;;;;;5013051;28;20434;-57
2023/06/30 01:50:09;;;;;;;2.03;1.10;;;14.50;99.90;;;;;;5012147;28;20060;-56
2023/06/30 01:52:35;;;;;;;2.47;1.20;;;14.40;99.90;;;;;;5012427;28;20044;-57
2023/06/30 01:55:03;;;;;;;3.22;1.40;;;14.40;99.90;;;;;;5012480;28;20367;-56
2023/06/30 01:57:28;;;;;;;1.90;1.60;;;14.40;99.90;;;;;;5012484;28;20077;-57
2023/06/30 01:59:54;;;;;;;4.78;1.23;;;14.40;99.90;;;;;;5011921;28;20026;-57
2023/06/30 02:02:20;;;;;;;2.50;1.45;;;14.40;99.90;;;;;;5012652;28;20088;-56
2023/06/30 02:04:46;;;;;;;3.65;1.38;;;14.40;99.90;;;;;;5012258;28;20060;-57
2023/06/30 02:07:11;;;;;;;5.28;1.00;;;14.40;99.90;;;;;;5010980;28;20057;-57
2023/06/30 02:09:37;;;;;;;3.70;1.48;;;14.30;99.90;;;;;;5010635;28;20022;-57
2023/06/30 02:12:03;;;;;;;3.00;1.10;;;14.30;99.90;;;;;;5010202;28;20104;-56
2023/06/30 02:14:29;;;;;;;2.05;1.00;;;14.30;99.90;;;;;;5011126;28;20029;-57
2023/06/30 02:16:54;;;;;;;1.45;1.13;;;14.30;99.90;;;;;;5010484;28;20030;-57
2023/06/30 02:19:23;;;;;;;1.20;1.00;;;14.20;99.90;;;;;;5026779;28;20050;-57
2023/06/30 02:21:50;;;;;;;2.95;1.42;;;14.20;99.90;;;;;;5011951;28;20042;-56
2023/06/30 02:24:16;;;;;;;1.95;1.00;;;14.20;99.90;;;;;;5012471;28;20026;-56
2023/06/30 02:26:41;;;;;;;2.17;1.45;;;14.10;99.90;;;;;;5012971;28;20037;-58
2023/06/30 02:29:07;;;;;;;7.00;1.20;;;14.10;99.90;;;;;;5011448;28;20467;-57
2023/06/30 02:31:33;;;;;;;4.05;1.38;;;14.10;99.90;;;;;;5012896;28;20430;-56
2023/06/30 02:33:58;;;;;;;3.55;1.17;;;14.10;99.90;;;;;;5012269;28;20030;-57
2023/06/30 02:36:25;;;;;;;1.13;1.00;;;14.00;99.90;;;;;;5012915;28;20040;-57
2023/06/30 02:38:50;;;;;;;1.23;1.13;;;14.00;99.90;;;;;;5011878;28;20077;-56
2023/06/30 02:41:16;;;;;;;7.45;1.45;;;13.90;99.90;;;;;;5012915;28;20116;-56
2023/06/30 02:43:43;;;;;;;5.55;1.15;;;14.00;99.90;;;;;;5011808;28;20057;-56
2023/06/30 02:46:09;;;;;;;5.75;1.08;;;13.90;99.90;;;;;;5010458;28;20026;-57
2023/06/30 02:48:35;;;;;;;3.35;1.27;;;13.90;99.90;;;;;;5012779;28;20120;-55
2023/06/30 02:51:00;;;;;;;3.17;1.48;;;13.90;99.90;;;;;;5011827;28;20234;-57
2023/06/30 02:53:26;;;;;;;6.82;1.40;;;13.90;99.90;;;;;;5012951;28;20036;-56
2023/06/30 02:55:52;;;;;;;4.10;1.17;;;13.90;99.90;;;;;;5012725;28;20026;-59
2023/06/30 02:58:17;;;;;;;4.93;1.15;;;13.90;99.90;;;;;;5011673;28;20029;-57
2023/06/30 03:00:43;;;;;;;2.30;1.20;;;13.80;99.90;;;;;;5011684;28;20514;-56
2023/06/30 03:03:09;;;;;;;6.93;1.40;;;13.80;99.90;;;;;;5012492;28;20054;-56
2023/06/30 03:05:35;;;;;;;1.77;1.13;;;13.80;99.90;;;;;;5011867;28;20104;-57
2023/06/30 03:08:02;;;;;;;3.70;1.50;;;13.80;99.90;;;;;;5010444;28;21019;-57
2023/06/30 03:10:28;;;;;;;1.55;1.02;;;13.90;99.90;;;;;;5012475;28;20034;-57
2023/06/30 03:12:54;;;;;;;5.63;1.40;;;13.80;99.90;;;;;;5010528;28;20026;-57
2023/06/30 03:15:20;;;;;;;2.45;1.27;;;13.80;99.90;;;;;;5011657;28;20372;-60
2023/06/30 03:17:46;;;;;;;3.05;1.27;;;13.80;99.90;;;;;;5011569;28;20117;-56
2023/06/30 03:20:12;;;;;;;2.83;1.50;;;13.80;99.90;;;;;;5012266;28;20558;-56
2023/06/30 03:22:39;;;;;;;5.20;1.15;;;13.80;99.90;;;;;;5015292;28;20034;-57
2023/06/30 03:25:05;;;;;;;3.55;1.23;;;13.80;99.90;;;;;;5014579;28;20605;-56
2023/06/30 03:27:31;;;;;;;3.95;1.38;;;13.80;99.90;;;;;;5014492;28;20072;-56
2023/06/30 03:29:57;;;;;;;4.15;1.40;;;13.80;99.90;;;;;;5014068;28;20069;-54
2023/06/30 03:32:23;;;;;;;5.80;1.05;;;13.80;99.90;;;;;;5013043;28;20037;-56
2023/06/30 03:34:48;;;;;;;1.70;1.33;;;13.80;99.90;;;;;;5015439;28;20398;-57
2023/06/30 03:37:14;;;;;;;1.10;1.10;;;13.80;99.90;;;;;;5015039;28;20022;-56
2023/06/30 03:39:39;;;;;;;4.43;1.25;;;13.80;99.90;;;;;;5014249;28;20022;-57
2023/06/30 03:42:05;;;;;;;2.10;1.25;;;13.80;99.90;;;;;;5012550;28;20022;-57
2023/06/30 03:44:31;;;;;;;5.60;1.20;;;13.80;99.90;;;;;;5014963;28;20398;-56
2023/06/30 03:46:57;;;;;;;2.65;1.42;;;13.80;99.90;;;;;;5014939;28;20026;-56
2023/06/30 03:49:23;;;;;;;2.97;1.20;;;13.80;99.90;;;;;;5014646;28;20053;-57
2023/06/30 03:51:49;;;;;;;6.72;1.45;;;13.80;99.90;;;;;;5011726;28;20053;-56
2023/06/30 03:54:15;;;;;;;4.78;1.65;;;13.80;99.90;;;;;;5014941;28;20459;-56
2023/06/30 03:56:40;;;;;;;2.45;1.25;;;13.80;99.90;;;;;;5012975;28;20057;-55
2023/06/30 03:59:06;;;;;;;2.83;1.02;;;13.80;99.90;;;;;;5013492;28;20494;-56
2023/06/30 04:01:34;;;;;;;7.13;1.55;;;13.80;99.90;;;;;;5012961;28;20025;-56
2023/06/30 04:04:00;;;;;;;3.30;1.42;;;13.80;99.90;;;;;;5013175;28;20022;-56
2023/06/30 04:06:26;;;;;;;2.45;1.00;;;13.80;99.90;;;;;;5013869;28;20025;-56
2023/06/30 04:08:51;;;;;;;3.25;0.88;;;13.80;99.90;;;;;;5014338;28;20061;-56
2023/06/30 04:11:17;;;;;;;5.85;1.48;;;13.90;99.90;;;;;;5013985;28;20022;-57
2023/06/30 04:13:42;;;;;;;6.47;1.40;;;13.90;99.90;;;;;;5015081;28;20030;-57
2023/06/30 04:16:09;;;;;;;1.08;1.00;;;13.90;99.90;;;;;;5015119;28;20024;-60
2023/06/30 04:18:34;;;;;;;2.83;1.25;;;13.90;99.90;;;;;;5014498;28;20494;-58
2023/06/30 04:21:00;;;;;;;4.30;1.10;;;13.90;99.90;;;;;;5015017;28;20076;-57
2023/06/30 04:23:25;;;;;;;1.33;1.00;;;13.90;99.90;;;;;;5015083;28;20497;-56
2023/06/30 04:25:51;;;;;;;3.00;1.10;;;14.00;99.90;;;;;;5013778;28;20033;-56
2023/06/30 04:28:17;;;;;;;2.80;1.20;;;14.00;99.90;;;;;;5014760;28;20026;-57
2023/06/30 04:30:42;;;;;;;1.77;1.15;;;14.00;99.90;;;;;;5014879;28;20498;-57
2023/06/30 04:33:08;;;;;;;3.95;1.20;;;14.00;99.90;;;;;;5013983;28;20026;-58
2023/06/30 04:35:34;;;;;;;2.80;1.10;;;14.10;99.90;;;;;;5014161;28;20026;-56
2023/06/30 04:37:59;;;;;;;2.35;1.38;;;14.10;99.90;;;;;;5014692;28;20022;-56
2023/06/30 04:40:25;;;;;;;2.85;1.38;;;14.10;99.90;;;;;;5014662;28;20490;-52
2023/06/30 04:42:50;;;;;;;3.95;1.48;;;14.20;99.90;;;;;;5014268;28;20037;-61
2023/06/30 04:45:16;;;;;;;1.63;0.82;;;14.20;99.90;;;;;;5013791;28;20539;-57
2023/06/30 04:47:42;;;;;;;6.03;1.83;;;14.30;99.90;;;;;;5014266;28;20029;-56
2023/06/30 04:50:08;;;;;;;1.80;1.27;;;14.40;99.90;;;;;;5014492;28;20387;-57
2023/06/30 04:52:34;;;;;;;2.67;1.35;;;14.50;99.90;;;;;;5014311;28;20076;-56
2023/06/30 04:54:59;;;;;;;3.33;1.30;;;14.50;99.90;;;;;;5014373;28;20422;-59
2023/06/30 04:57:26;;;;;;;4.35;1.00;;;14.60;99.90;;;;;;5013337;28;20415;-55
2023/06/30 04:59:54;;;;;;;4.57;1.17;;;14.60;99.90;;;;;;5014482;28;20022;-56
2023/06/30 05:02:20;;;;;;;6.63;1.23;;;14.70;99.90;;;;;;5012454;28;20124;-56
2023/06/30 05:04:46;;;;;;;2.22;0.88;;;14.80;99.90;;;;;;5013468;28;20116;-56
2023/06/30 05:07:12;;;;;;;2.33;1.30;;;14.80;99.90;;;;;;5011045;28;20080;-54
2023/06/30 05:09:38;;;;;;;3.15;1.50;;;14.90;99.90;;;;;;5014349;28;20533;-57
2023/06/30 05:12:04;;;;;;;5.07;1.40;;;15.00;99.90;;;;;;5011896;28;20057;-58
2023/06/30 05:14:30;;;;;;;3.90;1.20;;;15.00;99.90;;;;;;5014057;28;20026;-56
2023/06/30 05:16:55;;;;;;;7.53;1.35;;;15.10;99.90;;;;;;5013479;28;20108;-57
2023/06/30 05:19:21;;;;;;;3.03;1.23;;;15.10;99.90;;;;;;5013565;28;20085;-57
2023/06/30 05:21:47;;;;;;;4.45;1.20;;;15.20;99.90;;;;;;5013291;28;20030;-57
2023/06/30 05:24:12;;;;;;;1.92;1.05;;;15.20;99.90;;;;;;5013680;28;20037;-57
2023/06/30 05:26:39;;;;;;;2.42;1.02;;;15.30;99.90;;;;;;5012163;28;20026;-57
2023/06/30 05:29:06;;;;;;;5.45;1.17;;;15.30;99.90;;;;;;5012862;28;20103;-58
2023/06/30 05:31:32;;;;;;;5.72;1.00;;;15.40;99.90;;;;;;5014036;28;20017;-56
2023/06/30 05:33:58;;;;;;;1.70;1.25;;;15.50;99.90;;;;;;5013629;28;20037;-57
2023/06/30 05:36:23;;;;;;;11.70;2.70;;;15.60;99.90;;;;;;5011607;28;20045;-57
2023/06/30 05:38:49;;;;;;;5.30;1.52;;;15.60;99.90;;;;;;5012989;28;20418;-57
2023/06/30 05:41:15;;;;;;;6.38;1.70;;;15.70;99.90;;;;;;5012959;28;20101;-57
2023/06/30 05:43:40;;;;;;;2.30;1.30;;;15.80;99.90;;;;;;5013828;28;20033;-57
2023/06/30 05:46:06;;;;;;;8.27;1.45;;;15.90;99.90;;;;;;5011905;28;20578;-57
2023/06/30 05:48:32;;;;;;;1.40;0.93;;;15.80;99.90;;;;;;5012178;28;20025;-57
2023/06/30 05:50:57;;;;;;;1.77;1.15;;;15.90;99.90;;;;;;5013416;28;20041;-57
2023/06/30 05:53:23;;;;;;;4.65;1.33;;;16.00;99.90;;;;;;5012060;28;20038;-57
2023/06/30 05:55:48;;;;;;;11.63;2.65;;;16.00;99.90;;;;;;5012308;28;20101;-56
2023/06/30 05:58:14;;;;;;;2.42;1.38;;;16.10;99.90;;;;;;5013285;28;20022;-57
2023/06/30 06:00:40;;;;;;;4.00;1.23;;;16.20;99.90;;;;;;5012187;28;20026;-57
2023/06/30 06:03:06;;;;;;;6.15;1.40;;;16.30;99.90;;;;;;5013957;28;20422;-57
2023/06/30 06:05:31;;;;;;;6.28;1.45;;;16.30;99.90;;;;;;5011028;28;20034;-58
2023/06/30 06:07:57;;;;;;;6.75;1.60;;;16.40;99.90;;;;;;5012389;28;20060;-57
2023/06/30 06:10:22;;;;;;;3.10;1.38;;;16.50;99.90;;;;;;5008929;28;20053;-56
2023/06/30 06:12:51;;;;;;;8.45;2.35;;;16.60;99.90;;;;;;5009141;28;20034;-56
2023/06/30 06:15:17;;;;;;;2.85;1.55;;;17.10;99.90;;;;;;5011123;28;20057;-57
2023/06/30 06:17:42;;;;;;;3.15;1.50;;;18.20;99.90;;;;;;5010937;28;20053;-57
2023/06/30 06:20:08;;;;;;;5.72;1.30;;;19.30;99.90;;;;;;5012063;28;20053;-60
2023/06/30 06:22:34;;;;;;;4.53;1.58;;;19.80;99.90;;;;;;5008158;28;20030;-57
2023/06/30 06:24:59;;;;;;;4.78;1.35;;;20.20;99.90;;;;;;5012715;28;20643;-57
2023/06/30 06:27:25;;;;;;;3.05;1.02;;;20.20;99.90;;;;;;5011134;28;20107;-58
2023/06/30 06:29:51;;;;;;;2.50;0.82;;;20.40;99.90;;;;;;5012843;28;20069;-58
2023/06/30 06:32:18;;;;;;;3.30;1.17;;;20.60;99.90;;;;;;5012726;28;20032;-58
2023/06/30 06:34:44;;;;;;;;;;;20.90;99.90;;;;;;5012236;28;20037;-58
2023/06/30 06:37:10;;;;;;;11.57;2.55;;;20.90;99.90;;;;;;5012753;28;20354;-58
2023/06/30 06:39:36;;;;;;;9.32;2.03;;;20.30;99.90;;;;;;5012132;28;20501;-59
2023/06/30 06:42:01;;;;;;;2.92;1.30;;;19.60;99.90;;;;;;5012718;28;20092;-58
2023/06/30 06:44:27;;;;;;;4.63;0.90;;;19.40;99.90;;;;;;5012619;28;20026;-57
2023/06/30 06:47:31;;;;;;;3.97;0.90;;;19.10;99.90;;;;;;5012787;28;20025;-58
2023/06/30 06:49:56;;;;;;;4.25;1.35;;;19.20;99.90;;;;;;5012415;28;20026;-58
2023/06/30 06:52:22;;;;;;;3.45;1.40;;;19.50;99.90;;;;;;5012930;28;20033;-58
2023/06/30 06:54:48;;;;;;;5.28;0.80;;;19.60;99.90;;;;;;5012803;28;20030;-56
2023/06/30 06:57:13;;;;;;;3.75;1.30;;;19.70;99.90;;;;;;5016099;28;20430;-59
2023/06/30 06:59:39;;;;;;;3.30;0.98;;;19.90;99.90;;;;;;5016858;28;20101;-55
2023/06/30 07:02:05;;;;;;;2.58;1.00;;;20.20;99.90;;;;;;5016355;28;20030;-55
2023/06/30 07:04:30;;;;;;;3.15;1.17;;;20.50;99.90;;;;;;5016476;28;20028;-57
2023/06/30 07:06:56;;;;;;;1.60;1.10;;;20.60;99.90;;;;;;5016494;28;20064;-58
2023/06/30 07:09:22;;;;;;;2.70;0.98;;;20.80;99.90;;;;;;5014963;28;20475;-57
2023/06/30 07:11:47;;;;;;;8.52;1.10;;;21.10;99.90;;;;;;5005215;28;20025;-58
2023/06/30 07:14:13;;;;;;;3.85;1.00;;;21.80;99.90;;;;;;5015664;28;20029;-58
2023/06/30 07:16:39;;;;;;;3.47;1.05;;;23.40;99.90;;;;;;5016058;28;20018;-57
2023/06/30 07:19:04;;;;;;;1.60;0.93;;;24.60;99.90;;;;;;5015826;28;20188;-57
2023/06/30 07:21:31;;;;;;;3.58;1.02;;;25.50;99.60;;;;;;5016044;28;20022;-58
2023/06/30 07:23:57;;;;;;;1.63;0.90;;;25.80;98.10;;;;;;5016021;28;20025;-58
2023/06/30 07:26:22;;;;;;;1.02;0.70;;;25.40;98.50;;;;;;5016066;28;20022;-58
2023/06/30 07:28:48;;;;;;;5.70;0.90;;;24.90;98.30;;;;;;5013817;28;20022;-57
2023/06/30 07:31:13;;;;;;;4.50;1.27;;;24.90;98.60;;;;;;5014466;28;20033;-58
2023/06/30 07:33:39;;;;;;;2.15;0.63;;;24.80;98.60;;;;;;5014715;28;20030;-56
2023/06/30 07:36:05;;;;;;;2.83;0.90;;;25.00;98.10;;;;;;5011940;28;20025;-56
2023/06/30 07:38:31;;;;;;;1.30;0.90;;;24.90;98.30;;;;;;5013536;28;20434;-58
2023/06/30 07:40:58;;;;;;;2.97;1.23;;;25.40;98.70;;;;;;5014659;28;20033;-56
2023/06/30 07:43:24;;;;;;;1.90;0.93;;;25.90;98.60;;;;;;5015686;28;20053;-59
2023/06/30 07:45:50;;;;;;;1.35;0.90;;;25.90;97.50;;;;;;5014540;28;20155;-57
2023/06/30 07:48:16;;;;;;;2.25;1.15;;;25.50;97.90;;;;;;5004712;28;20035;-57
2023/06/30 07:50:41;;;;;;;2.83;0.90;;;24.80;98.30;;;;;;5009084;28;20033;-58
2023/06/30 07:53:08;;;;;;;1.45;1.20;;;23.80;99.00;;;;;;5004110;28;20451;-59
2023/06/30 07:55:34;;;;;;;4.43;1.13;;;22.70;99.90;;;;;;5011634;28;20073;-57
2023/06/30 07:58:00;;;;;;;1.70;0.90;;;22.10;99.90;;;;;;5014127;28;20478;-57
2023/06/30 08:00:28;;;;;;;2.00;1.60;;;21.50;99.90;;;;;;5013541;28;20018;-57
2023/06/30 08:02:54;;;;;;;1.73;1.02;;;21.30;99.90;;;;;;5015641;28;20020;-59
2023/06/30 08:05:21;;;;;;;3.47;1.13;;;21.00;99.90;;;;;;5014063;28;20071;-57
2023/06/30 08:07:47;;;;;;;2.75;1.27;;;21.00;99.90;;;;;;5011954;28;20556;-58
2023/06/30 08:10:13;;;;;;;4.88;1.58;;;21.30;99.90;;;;;;5011712;28;20069;-59
2023/06/30 08:12:38;;;;;;;2.35;1.15;;;21.30;99.90;;;;;;5013961;28;20483;-58
2023/06/30 08:15:05;;;;;;;5.72;0.95;;;21.30;99.90;;;;;;5013859;28;20017;-58
2023/06/30 08:17:30;;;;;;;4.45;1.00;;;20.90;99.90;;;;;;5012854;28;20066;-59
2023/06/30 08:19:56;;;;;;;2.60;1.15;;;20.90;99.90;;;;;;5012481;28;20030;-58
2023/06/30 08:22:22;;;;;;;5.05;0.98;;;21.20;99.90;;;;;;5014009;28;20041;-60
2023/06/30 08:24:48;;;;;;;3.95;1.38;;;21.70;99.90;;;;;;5012785;28;20038;-58
2023/06/30 08:27:13;;;;;;;2.80;0.77;;;21.30;99.90;;;;;;5014793;28;20116;-58
2023/06/30 08:29:39;;;;;;;1.20;0.77;;;21.10;99.90;;;;;;5014887;28;20527;-57
2023/06/30 08:32:06;;;;;;;5.57;0.98;;;21.40;99.90;;;;;;5013562;28;20113;-61
2023/06/30 08:34:31;;;;;;;3.15;1.60;;;21.30;99.90;;;;;;5014846;28;20068;-58
2023/06/30 08:36:57;;;;;;;1.13;0.70;;;20.90;99.90;;;;;;5013887;28;20487;-58
2023/06/30 08:39:26;;;;;;;12.30;2.03;;;20.80;99.90;;;;;;5013624;28;20045;-59
2023/06/30 08:41:54;;;;;;;2.55;1.10;;;21.00;99.90;;;;;;5014612;28;20033;-55
2023/06/30 08:44:23;;;;;;;1.70;0.80;;;20.70;99.90;;;;;;5012915;28;20117;-54
2023/06/30 08:46:54;;;;;;;4.68;1.02;;;20.60;99.90;;;;;;5013058;28;20032;-58
2023/06/30 08:49:24;;;;;;;2.63;0.93;;;20.60;99.90;;;;;;5014516;28;20540;-58
2023/06/30 08:51:56;;;;;;;3.30;0.85;;;21.00;99.90;;;;;;5006152;28;20454;-52
2023/06/30 08:54:23;;;;;;;5.82;0.85;;;21.90;99.90;;;;;;4994853;28;20033;-57
2023/06/30 08:56:49;;;;;;;3.03;1.17;;;22.60;99.90;;;;;;5009897;28;20026;-58
2023/06/30 08:59:14;;;;;;;7.72;1.45;;;23.10;99.90;;;;;;5014070;28;20029;-58
2023/06/30 09:01:41;;;;;;;2.17;0.88;;;22.90;99.70;;;;;;5010337;28;20055;-59
2023/06/30 09:04:08;;;;;;;2.38;0.80;;;23.00;99.90;;;;;;5014132;28;20486;-58
2023/06/30 09:06:37;;;;;;;6.15;1.25;;;23.40;99.80;;;;;;5012924;28;20033;-58
2023/06/30 09:09:08;;;;;;;3.45;0.60;;;23.50;99.30;;;;;;5013563;28;20022;-51
2023/06/30 09:11:34;;;;;;;1.55;0.90;;;23.90;99.00;;;;;;5001713;28;20491;-56
2023/06/30 09:14:02;;;;;;;1.70;0.73;;;24.20;98.50;;;;;;5007569;28;20398;-58
2023/06/30 09:16:30;;;;;;;0.95;0.70;;;24.40;98.30;;;;;;5013066;28;20606;-58
2023/06/30 09:18:56;;;;;;;7.57;1.20;;;24.50;98.30;;;;;;5028170;28;20469;-59
2023/06/30 09:21:21;;;;;;;2.63;1.00;;;24.40;97.40;;;;;;5013914;28;20090;-59
2023/06/30 09:23:47;;;;;;;4.72;0.90;;;24.00;98.00;;;;;;5012454;28;20017;-59
2023/06/30 09:26:14;;;;;;;1.60;0.90;;;23.10;97.40;;;;;;5013844;28;20434;-59
2023/06/30 09:28:42;;;;;;;2.33;1.13;;;22.40;98.50;;;;;;5013765;28;20387;-61
2023/06/30 09:31:08;;;;;;;1.60;1.00;;;22.20;99.40;;;;;;5013092;28;20018;-58
2023/06/30 09:33:36;;;;;;;2.47;1.45;;;21.90;99.90;;;;;;5010013;28;20037;-59
2023/06/30 09:36:03;;;;;;;2.15;0.98;;;21.80;99.60;;;;;;5001776;28;20050;-59
2023/06/30 09:38:29;;;;;;;4.07;1.08;;;21.50;99.90;;;;;;4994044;28;20392;-55
2023/06/30 09:40:56;;;;;;;2.58;1.10;;;21.40;99.90;;;;;;5011595;28;20022;-52
2023/06/30 09:43:25;;;;;;;4.57;0.90;;;21.40;99.90;;;;;;5010717;28;20083;-57
2023/06/30 09:45:55;;;;;;;5.57;1.02;;;21.50;99.90;;;;;;4995272;28;20487;-58
2023/06/30 09:48:21;;;;;;;11.40;1.48;;;21.70;99.90;;;;;;5012048;28;20029;-58
2023/06/30 09:50:47;;;;;;;2.58;1.00;;;21.80;99.90;;;;;;5007554;28;20030;-59
2023/06/30 09:53:19;;;;;;;7.28;1.17;;;21.60;99.90;;;;;;4999979;28;20490;-59
2023/06/30 09:55:49;;;;;;;2.97;1.10;;;21.40;99.90;;;;;;4996920;28;20018;-63
2023/06/30 09:58:19;;;;;;;2.65;1.08;;;21.20;99.90;;;;;;5012822;28;20030;-59
2023/06/30 10:00:46;;;;;;;5.88;1.15;;;21.20;99.90;;;;;;5008676;28;20026;-59
2023/06/30 10:03:16;;;;;;;1.40;0.80;;;21.30;99.90;;;;;;4999641;28;20111;-60
2023/06/30 10:05:42;;;;;;;2.03;1.10;;;21.50;99.90;;;;;;5028412;28;20026;-54
2023/06/30 10:08:09;;;;;;;3.60;1.30;;;21.60;99.90;;;;;;5013724;28;20551;-59
2023/06/30 10:10:35;;;;;;;4.00;1.60;;;21.70;99.90;;;;;;5019598;28;20034;-58
2023/06/30 10:13:02;;;;;;;1.30;1.20;;;21.60;99.90;;;;;;5013107;28;20512;-60
2023/06/30 10:15:29;;;;;;;1.75;1.00;;;21.60;99.90;;;;;;5013065;28;20028;-61
2023/06/30 10:17:58;;;;;;;6.28;1.77;;;21.60;99.90;;;;;;5010715;28;20474;-58
2023/06/30 10:20:24;;;;;;;3.53;1.10;;;21.80;99.90;;;;;;5010004;28;20030;-56
2023/06/30 10:22:51;;;;;;;2.38;1.20;;;22.10;99.90;;;;;;5001053;28;20590;-57
2023/06/30 10:25:20;;;;;;;1.35;0.90;;;22.80;99.90;;;;;;5012484;28;20509;-59
2023/06/30 10:27:47;;;;;;;2.35;0.90;;;23.00;99.90;;;;;;5012898;28;20390;-58
2023/06/30 10:30:14;;;;;;;3.03;1.10;;;22.90;99.90;;;;;;5011647;28;20080;-58
2023/06/30 10:32:39;;;;;;;2.38;1.50;;;22.80;99.90;;;;;;5026005;28;20036;-61
2023/06/30 10:35:08;;;;;;;1.55;1.27;;;22.40;99.90;;;;;;5012103;28;20021;-57
2023/06/30 10:37:34;;;;;;;2.78;1.40;;;22.20;99.90;;;;;;5015838;28;20032;-53
2023/06/30 10:40:00;;;;;;;1.10;1.10;;;22.40;99.90;;;;;;5018055;28;20022;-57
2023/06/30 10:42:27;;;;;;;2.10;1.45;;;22.80;99.90;;;;;;5011283;28;20029;-58
2023/06/30 10:45:01;;;;;;;3.58;1.17;;;23.40;99.90;;;;;;5027520;28;20033;-60
2023/06/30 10:47:30;;;;;;;5.38;1.13;;;23.80;99.50;;;;;;5012211;28;20026;-58
2023/06/30 10:49:56;;;;;;;1.02;1.02;;;23.70;99.50;;;;;;5011106;28;20036;-59
2023/06/30 10:52:28;;;;;;;1.50;1.08;;;23.40;99.60;;;;;;5011780;28;20032;-61
2023/06/30 10:54:54;;;;;;;3.55;1.58;;;23.20;99.90;;;;;;5009949;28;20026;-58
2023/06/30 10:57:25;;;;;;;6.57;1.35;;;22.90;99.90;;;;;;5012673;28;20506;-57
2023/06/30 11:00:10;;;;;;;3.38;1.27;;;22.80;99.90;;;;;;5011895;28;20270;-58
2023/06/30 11:02:59;;;;;;;3.55;0.85;;;22.80;99.90;;;;;;5012608;28;20037;-58
2023/06/30 11:05:29;;;;;;;1.98;1.10;;;23.00;99.90;;;;;;5011785;28;20109;-59
2023/06/30 11:08:01;;;;;;;1.27;0.95;;;23.30;99.90;;;;;;5012634;28;20022;-59
2023/06/30 11:10:44;;;;;;;1.25;1.10;;;23.60;99.80;;;;;;5012556;28;20026;-59
2023/06/30 11:13:11;;;;;;;1.40;0.93;;;23.60;99.60;;;;;;5011819;28;20372;-58
2023/06/30 11:15:38;;;;;;;5.55;1.17;;;23.60;99.90;;;;;;5012602;28;20014;-58
2023/06/30 11:18:14;;;;;;;2.90;1.10;;;23.70;99.50;;;;;;5027405;28;20049;-58
2023/06/30 11:20:59;;;;;;;1.45;0.88;;;23.80;99.40;;;;;;5012801;28;20037;-59
2023/06/30 11:23:28;;;;;;;2.42;1.17;;;23.90;99.40;;;;;;5012402;28;20026;-59
2023/06/30 11:25:57;;;;;;;1.10;0.93;;;24.00;98.80;;;;;;5012458;28;20034;-58
2023/06/30 11:28:26;;;;;;;1.45;1.17;;;24.00;99.10;;;;;;5011693;28;20101;-59
2023/06/30 11:30:52;;;;;;;1.23;1.00;;;24.20;98.50;;;;;;5012377;28;20041;-60
2023/06/30 11:33:18;;;;;;;1.40;1.27;;;24.00;98.70;;;;;;5027467;28;20030;-58
2023/06/30 11:35:52;;;;;;;6.47;2.20;;;24.20;98.60;;;;;;5011729;28;20021;-57
2023/06/30 11:38:18;;;;;;;5.30;1.10;;;24.30;98.20;;;;;;5012626;28;20422;-59
2023/06/30 11:40:45;;;;;;;1.52;1.33;;;24.50;98.00;;;;;;5012309;28;20080;-59
2023/06/30 11:43:10;;;;;;;10.35;1.20;;;24.40;98.20;;;;;;5015950;28;20663;-58
2023/06/30 11:45:36;;;;;;;2.13;0.95;;;24.40;98.40;;;;;;5015010;28;20049;-58
2023/06/30 11:48:02;;;;;;;1.38;1.17;;;24.30;98.10;;;;;;5015730;28;20072;-58
2023/06/30 11:50:30;;;;;;;2.70;1.38;;;24.20;98.30;;;;;;5015708;28;20030;-57
2023/06/30 11:52:55;;;;;;;2.22;1.30;;;24.20;98.40;;;;;;5015519;28;20101;-57
2023/06/30 11:55:22;;;;;;;4.13;1.40;;;24.10;98.70;;;;;;5015376;28;20061;-57
2023/06/30 11:57:48;;;;;;;10.60;1.45;;;23.90;98.80;;;;;;5015805;28;20022;-59
2023/06/30 12:00:22;;;;;;;2.05;1.63;;;23.70;98.80;;;;;;5024673;28;20104;-57
2023/06/30 12:02:49;;;;;;;3.45;1.70;;;23.50;99.30;;;;;;5001602;28;20128;-58
2023/06/30 12:05:23;;;;;;;1.85;1.27;;;23.30;99.30;;;;;;5013931;28;20029;-59
2023/06/30 12:07:50;;;;;;;2.50;1.38;;;23.20;99.70;;;;;;5003884;28;20036;-59
2023/06/30 12:10:17;;;;;;;;;;;23.30;99.80;;;;;;5015666;28;20125;-59
2023/06/30 12:12:43;;;;;;;2.97;1.23;;;23.50;99.90;;;;;;5012279;28;19920;-58
2023/06/30 12:15:12;;;;;;;2.80;1.45;;;23.90;99.20;;;;;;5013310;28;20017;-58
2023/06/30 12:17:39;;;;;;;3.35;1.65;;;23.90;99.20;;;;;;5014230;28;20333;-59
2023/06/30 12:20:07;;;;;;;8.05;1.60;;;24.00;99.10;;;;;;5029132;28;20414;-61
2023/06/30 12:22:41;;;;;;;2.67;1.13;;;24.20;98.60;;;;;;5015365;28;20040;-59
2023/06/30 12:25:11;;;;;;;1.58;1.08;;;24.30;99.00;;;;;;5030529;28;20494;-57
2023/06/30 12:27:43;;;;;;;1.35;1.13;;;24.40;98.50;;;;;;5015320;28;20108;-58
2023/06/30 12:30:19;;;;;;;4.43;1.27;;;24.40;98.00;;;;;;5015213;28;20022;-59
2023/06/30 12:32:46;;;;;;;1.42;1.30;;;24.30;98.00;;;;;;5014729;28;20033;-61
2023/06/30 12:35:12;;;;;;;1.97;1.43;;;24.20;98.50;;;;;;5012358;28;20033;-58
2023/06/30 12:37:39;;;;;;;10.00;1.93;;;24.30;98.20;;;;;;5014898;28;20269;-58
2023/06/30 12:40:06;;;;;;;2.67;1.35;;;24.40;98.30;;;;;;5013508;28;20018;-57
2023/06/30 12:42:32;;;;;;;;;;;24.70;98.10;;;;;;5013128;28;20057;-58
2023/06/30 12:44:57;;;;;;;4.45;1.40;;;24.80;97.80;;;;;;5014624;28;19948;-57
2023/06/30 12:47:23;;;;;;;2.30;1.13;;;24.60;98.10;;;;;;5014654;28;20393;-59